sensor_id;sensor_type;location;lat;lon;timestamp;temperature;humidity
39325;DHT22;25037;49.488;9.900;2023-04-24T00:01:01;14.80;63.40
39325;DHT22;25037;49.488;9.900;2023-04-24T00:03:28;14.80;63.40
39325;DHT22;25037;49.488;9.900;2023-04-24T00:05:55;14.80;63.40
39325;DHT22;25037;49.488;9.900;2023-04-24T00:08:22;14.80;63.50
39325;DHT22;25037;49.488;9.900;2023-04-24T00:10:50;14.80;63.60
39325;DHT22;25037;49.488;9.900;2023-04-24T00:13:18;14.80;63.50
39325;DHT22;25037;49.488;9.900;2023-04-24T00:15:45;14.80;63.50
39325;DHT22;25037;49.488;9.900;2023-04-24T00:18:12;14.80;63.40
39325;DHT22;25037;49.488;9.900;2023-04-24T00:20:38;14.80;63.50
39325;DHT22;25037;49.488;9.900;2023-04-24T00:23:06;14.80;63.50
39325;DHT22;25037;49.488;9.900;2023-04-24T00:25:32;14.80;63.50
39325;DHT22;25037;49.488;9.900;2023-04-24T00:27:59;14.80;63.60
39325;DHT22;25037;49.488;9.900;2023-04-24T00:30:26;14.80;63.50
39325;DHT22;25037;49.488;9.900;2023-04-24T00:32:52;14.80;63.30
39325;DHT22;25037;49.488;9.900;2023-04-24T00:35:19;14.80;63.30
39325;DHT22;25037;49.488;9.900;2023-04-24T00:37:46;14.80;63.30
39325;DHT22;25037;49.488;9.900;2023-04-24T00:40:13;14.70;63.30
39325;DHT22;25037;49.488;9.900;2023-04-24T00:42:40;14.80;63.20
39325;DHT22;25037;49.488;9.900;2023-04-24T00:45:07;14.70;63.10
39325;DHT22;25037;49.488;9.900;2023-04-24T00:47:34;14.80;63.00
39325;DHT22;25037;49.488;9.900;2023-04-24T00:50:02;14.80;62.80
39325;DHT22;25037;49.488;9.900;2023-04-24T00:52:29;14.80;62.70
39325;DHT22;25037;49.488;9.900;2023-04-24T00:54:58;14.80;62.60
39325;DHT22;25037;49.488;9.900;2023-04-24T00:57:25;14.80;62.50
39325;DHT22;25037;49.488;9.900;2023-04-24T00:59:52;14.80;62.40
39325;DHT22;25037;49.488;9.900;2023-04-24T01:02:20;14.80;62.40
39325;DHT22;25037;49.488;9.900;2023-04-24T01:04:49;14.70;62.50
39325;DHT22;25037;49.488;9.900;2023-04-24T01:07:19;14.70;62.50
39325;DHT22;25037;49.488;9.900;2023-04-24T01:09:48;14.70;62.60
39325;DHT22;25037;49.488;9.900;2023-04-24T01:12:15;14.70;62.50
39325;DHT22;25037;49.488;9.900;2023-04-24T01:14:42;14.70;62.50
39325;DHT22;25037;49.488;9.900;2023-04-24T01:17:09;14.70;62.60
39325;DHT22;25037;49.488;9.900;2023-04-24T01:19:36;14.70;62.60
39325;DHT22;25037;49.488;9.900;2023-04-24T01:22:11;14.60;62.80
39325;DHT22;25037;49.488;9.900;2023-04-24T01:24:38;14.60;63.00
39325;DHT22;25037;49.488;9.900;2023-04-24T01:27:05;14.60;63.10
39325;DHT22;25037;49.488;9.900;2023-04-24T01:29:32;14.60;63.10
39325;DHT22;25037;49.488;9.900;2023-04-24T01:31:59;14.60;63.20
39325;DHT22;25037;49.488;9.900;2023-04-24T01:34:26;14.50;63.20
39325;DHT22;25037;49.488;9.900;2023-04-24T01:36:53;14.50;63.20
39325;DHT22;25037;49.488;9.900;2023-04-24T01:39:20;14.50;63.30
39325;DHT22;25037;49.488;9.900;2023-04-24T01:41:47;14.40;63.30
39325;DHT22;25037;49.488;9.900;2023-04-24T01:44:14;14.40;63.30
39325;DHT22;25037;49.488;9.900;2023-04-24T01:46:41;14.40;63.30
39325;DHT22;25037;49.488;9.900;2023-04-24T01:49:08;14.40;63.40
39325;DHT22;25037;49.488;9.900;2023-04-24T01:51:34;14.40;63.30
39325;DHT22;25037;49.488;9.900;2023-04-24T01:54:01;14.40;63.30
39325;DHT22;25037;49.488;9.900;2023-04-24T01:56:29;14.40;63.30
39325;DHT22;25037;49.488;9.900;2023-04-24T01:58:57;14.30;63.40
39325;DHT22;25037;49.488;9.900;2023-04-24T02:01:24;14.30;63.40
39325;DHT22;25037;49.488;9.900;2023-04-24T02:03:51;14.30;63.50
39325;DHT22;25037;49.488;9.900;2023-04-24T02:06:18;14.30;63.50
39325;DHT22;25037;49.488;9.900;2023-04-24T02:08:45;14.30;63.50
39325;DHT22;25037;49.488;9.900;2023-04-24T02:11:11;14.20;63.50
39325;DHT22;25037;49.488;9.900;2023-04-24T02:13:38;14.20;63.60
39325;DHT22;25037;49.488;9.900;2023-04-24T02:16:05;14.20;63.70
39325;DHT22;25037;49.488;9.900;2023-04-24T02:18:31;14.10;63.80
39325;DHT22;25037;49.488;9.900;2023-04-24T02:20:58;14.00;63.80
39325;DHT22;25037;49.488;9.900;2023-04-24T02:23:24;14.00;63.90
39325;DHT22;25037;49.488;9.900;2023-04-24T02:25:51;14.00;63.90
39325;DHT22;25037;49.488;9.900;2023-04-24T02:28:19;14.00;63.90
39325;DHT22;25037;49.488;9.900;2023-04-24T02:30:46;14.00;63.90
39325;DHT22;25037;49.488;9.900;2023-04-24T02:33:13;14.00;64.00
39325;DHT22;25037;49.488;9.900;2023-04-24T02:35:39;13.90;63.90
39325;DHT22;25037;49.488;9.900;2023-04-24T02:38:06;13.90;64.00
39325;DHT22;25037;49.488;9.900;2023-04-24T02:40:33;13.90;64.00
39325;DHT22;25037;49.488;9.900;2023-04-24T02:42:59;13.90;64.00
39325;DHT22;25037;49.488;9.900;2023-04-24T02:45:26;13.90;64.00
39325;DHT22;25037;49.488;9.900;2023-04-24T02:47:53;13.90;64.00
39325;DHT22;25037;49.488;9.900;2023-04-24T02:50:19;13.80;64.10
39325;DHT22;25037;49.488;9.900;2023-04-24T02:52:46;13.80;64.00
39325;DHT22;25037;49.488;9.900;2023-04-24T02:55:13;13.80;64.10
39325;DHT22;25037;49.488;9.900;2023-04-24T02:57:40;13.80;64.10
39325;DHT22;25037;49.488;9.900;2023-04-24T03:00:07;13.80;64.20
39325;DHT22;25037;49.488;9.900;2023-04-24T03:02:33;13.80;64.20
39325;DHT22;25037;49.488;9.900;2023-04-24T03:05:01;13.80;64.30
39325;DHT22;25037;49.488;9.900;2023-04-24T03:07:28;13.80;64.20
39325;DHT22;25037;49.488;9.900;2023-04-24T03:09:55;13.80;64.20
39325;DHT22;25037;49.488;9.900;2023-04-24T03:12:24;13.70;64.20
39325;DHT22;25037;49.488;9.900;2023-04-24T03:14:50;13.70;64.20
39325;DHT22;25037;49.488;9.900;2023-04-24T03:17:17;13.70;64.30
39325;DHT22;25037;49.488;9.900;2023-04-24T03:19:44;13.70;64.30
39325;DHT22;25037;49.488;9.900;2023-04-24T03:22:11;13.70;64.40
39325;DHT22;25037;49.488;9.900;2023-04-24T03:24:38;13.70;64.30
39325;DHT22;25037;49.488;9.900;2023-04-24T03:27:05;13.70;64.30
39325;DHT22;25037;49.488;9.900;2023-04-24T03:29:32;13.70;64.40
39325;DHT22;25037;49.488;9.900;2023-04-24T03:31:58;13.60;64.40
39325;DHT22;25037;49.488;9.900;2023-04-24T03:34:25;13.50;64.50
39325;DHT22;25037;49.488;9.900;2023-04-24T03:36:52;13.50;64.60
39325;DHT22;25037;49.488;9.900;2023-04-24T03:39:19;13.50;64.70
39325;DHT22;25037;49.488;9.900;2023-04-24T03:41:45;13.50;64.70
39325;DHT22;25037;49.488;9.900;2023-04-24T03:44:12;13.50;64.70
39325;DHT22;25037;49.488;9.900;2023-04-24T03:46:39;13.40;64.70
39325;DHT22;25037;49.488;9.900;2023-04-24T03:49:05;13.50;64.70
39325;DHT22;25037;49.488;9.900;2023-04-24T03:51:32;13.40;64.80
39325;DHT22;25037;49.488;9.900;2023-04-24T03:53:59;13.40;64.90
39325;DHT22;25037;49.488;9.900;2023-04-24T03:56:25;13.50;64.90
39325;DHT22;25037;49.488;9.900;2023-04-24T03:58:52;13.50;65.00
39325;DHT22;25037;49.488;9.900;2023-04-24T04:01:19;13.50;64.90
39325;DHT22;25037;49.488;9.900;2023-04-24T04:03:47;13.50;64.90
39325;DHT22;25037;49.488;9.900;2023-04-24T04:06:14;13.50;64.90
39325;DHT22;25037;49.488;9.900;2023-04-24T04:08:41;13.50;64.90
39325;DHT22;25037;49.488;9.900;2023-04-24T04:11:07;13.50;64.80
39325;DHT22;25037;49.488;9.900;2023-04-24T04:13:34;13.50;64.80
39325;DHT22;25037;49.488;9.900;2023-04-24T04:16:01;13.40;64.80
39325;DHT22;25037;49.488;9.900;2023-04-24T04:18:27;13.40;64.90
39325;DHT22;25037;49.488;9.900;2023-04-24T04:20:54;13.40;64.90
39325;DHT22;25037;49.488;9.900;2023-04-24T04:23:21;13.40;64.90
39325;DHT22;25037;49.488;9.900;2023-04-24T04:25:47;13.40;64.90
39325;DHT22;25037;49.488;9.900;2023-04-24T04:28:14;13.40;64.90
39325;DHT22;25037;49.488;9.900;2023-04-24T04:30:41;13.40;64.90
39325;DHT22;25037;49.488;9.900;2023-04-24T04:33:08;13.40;64.90
39325;DHT22;25037;49.488;9.900;2023-04-24T04:35:37;13.50;64.80
39325;DHT22;25037;49.488;9.900;2023-04-24T04:38:03;13.50;64.80
39325;DHT22;25037;49.488;9.900;2023-04-24T04:40:31;13.50;64.80
39325;DHT22;25037;49.488;9.900;2023-04-24T04:42:57;13.60;65.00
39325;DHT22;25037;49.488;9.900;2023-04-24T04:45:24;13.60;65.30
39325;DHT22;25037;49.488;9.900;2023-04-24T04:47:53;13.60;65.70
39325;DHT22;25037;49.488;9.900;2023-04-24T04:50:21;13.60;66.00
39325;DHT22;25037;49.488;9.900;2023-04-24T04:52:49;13.60;66.20
39325;DHT22;25037;49.488;9.900;2023-04-24T04:55:16;13.70;66.50
39325;DHT22;25037;49.488;9.900;2023-04-24T04:57:42;13.70;66.90
39325;DHT22;25037;49.488;9.900;2023-04-24T05:00:09;13.70;67.10
39325;DHT22;25037;49.488;9.900;2023-04-24T05:02:38;13.70;67.30
39325;DHT22;25037;49.488;9.900;2023-04-24T05:05:06;13.70;67.40
39325;DHT22;25037;49.488;9.900;2023-04-24T05:07:33;13.70;67.60
39325;DHT22;25037;49.488;9.900;2023-04-24T05:09:59;13.70;67.80
39325;DHT22;25037;49.488;9.900;2023-04-24T05:12:26;13.60;67.70
39325;DHT22;25037;49.488;9.900;2023-04-24T05:14:53;13.70;67.90
39325;DHT22;25037;49.488;9.900;2023-04-24T05:17:20;13.70;68.20
39325;DHT22;25037;49.488;9.900;2023-04-24T05:19:47;13.70;68.30
39325;DHT22;25037;49.488;9.900;2023-04-24T05:22:14;13.60;68.50
39325;DHT22;25037;49.488;9.900;2023-04-24T05:24:41;13.60;68.50
39325;DHT22;25037;49.488;9.900;2023-04-24T05:27:08;13.60;68.40
39325;DHT22;25037;49.488;9.900;2023-04-24T05:29:35;13.60;68.60
39325;DHT22;25037;49.488;9.900;2023-04-24T05:32:02;13.70;68.40
39325;DHT22;25037;49.488;9.900;2023-04-24T05:34:28;13.80;68.30
39325;DHT22;25037;49.488;9.900;2023-04-24T05:36:55;13.90;68.20
39325;DHT22;25037;49.488;9.900;2023-04-24T05:39:22;14.00;67.90
39325;DHT22;25037;49.488;9.900;2023-04-24T05:41:48;14.00;67.70
39325;DHT22;25037;49.488;9.900;2023-04-24T05:44:15;14.10;67.40
39325;DHT22;25037;49.488;9.900;2023-04-24T05:46:42;14.10;67.40
39325;DHT22;25037;49.488;9.900;2023-04-24T05:49:08;14.10;67.30
39325;DHT22;25037;49.488;9.900;2023-04-24T05:51:35;14.00;67.20
39325;DHT22;25037;49.488;9.900;2023-04-24T05:54:02;14.00;67.30
39325;DHT22;25037;49.488;9.900;2023-04-24T05:56:29;14.00;67.20
39325;DHT22;25037;49.488;9.900;2023-04-24T05:58:56;14.00;66.90
39325;DHT22;25037;49.488;9.900;2023-04-24T06:01:22;14.10;66.50
39325;DHT22;25037;49.488;9.900;2023-04-24T06:03:49;14.30;66.40
39325;DHT22;25037;49.488;9.900;2023-04-24T06:06:16;14.40;65.80
39325;DHT22;25037;49.488;9.900;2023-04-24T06:08:43;14.60;65.40
39325;DHT22;25037;49.488;9.900;2023-04-24T06:11:10;14.80;64.70
39325;DHT22;25037;49.488;9.900;2023-04-24T06:13:37;15.30;63.50
39325;DHT22;25037;49.488;9.900;2023-04-24T06:16:04;15.70;62.70
39325;DHT22;25037;49.488;9.900;2023-04-24T06:18:31;16.10;61.80
39325;DHT22;25037;49.488;9.900;2023-04-24T06:20:58;16.50;61.20
39325;DHT22;25037;49.488;9.900;2023-04-24T06:23:25;16.90;60.80
39325;DHT22;25037;49.488;9.900;2023-04-24T06:25:51;17.30;59.80
39325;DHT22;25037;49.488;9.900;2023-04-24T06:28:18;17.40;59.20
39325;DHT22;25037;49.488;9.900;2023-04-24T06:30:45;17.50;58.70
39325;DHT22;25037;49.488;9.900;2023-04-24T06:33:11;17.50;58.20
39325;DHT22;25037;49.488;9.900;2023-04-24T06:35:47;17.80;58.00
39325;DHT22;25037;49.488;9.900;2023-04-24T06:38:14;18.00;57.20
39325;DHT22;25037;49.488;9.900;2023-04-24T06:40:42;18.30;56.20
39325;DHT22;25037;49.488;9.900;2023-04-24T06:43:11;18.30;55.50
39325;DHT22;25037;49.488;9.900;2023-04-24T06:45:38;18.40;55.00
39325;DHT22;25037;49.488;9.900;2023-04-24T06:48:06;18.40;54.90
39325;DHT22;25037;49.488;9.900;2023-04-24T06:50:33;18.50;54.40
39325;DHT22;25037;49.488;9.900;2023-04-24T06:52:59;18.60;53.80
39325;DHT22;25037;49.488;9.900;2023-04-24T06:55:26;18.70;53.70
39325;DHT22;25037;49.488;9.900;2023-04-24T06:57:53;18.80;53.90
39325;DHT22;25037;49.488;9.900;2023-04-24T07:00:19;19.00;52.90
39325;DHT22;25037;49.488;9.900;2023-04-24T07:02:46;19.00;52.30
39325;DHT22;25037;49.488;9.900;2023-04-24T07:05:13;19.10;52.30
39325;DHT22;25037;49.488;9.900;2023-04-24T07:07:41;19.00;52.00
39325;DHT22;25037;49.488;9.900;2023-04-24T07:10:09;19.10;52.20
39325;DHT22;25037;49.488;9.900;2023-04-24T07:12:36;19.30;51.50
39325;DHT22;25037;49.488;9.900;2023-04-24T07:15:02;19.30;51.10
39325;DHT22;25037;49.488;9.900;2023-04-24T07:17:29;19.50;51.00
39325;DHT22;25037;49.488;9.900;2023-04-24T07:19:56;19.70;50.30
39325;DHT22;25037;49.488;9.900;2023-04-24T07:22:23;19.80;49.60
39325;DHT22;25037;49.488;9.900;2023-04-24T07:24:49;20.00;49.30
39325;DHT22;25037;49.488;9.900;2023-04-24T07:27:16;19.80;49.40
39325;DHT22;25037;49.488;9.900;2023-04-24T07:29:43;19.50;49.40
39325;DHT22;25037;49.488;9.900;2023-04-24T07:32:10;19.20;48.90
39325;DHT22;25037;49.488;9.900;2023-04-24T07:34:36;18.80;49.50
39325;DHT22;25037;49.488;9.900;2023-04-24T07:37:03;18.70;49.90
39325;DHT22;25037;49.488;9.900;2023-04-24T07:39:30;18.50;49.80
39325;DHT22;25037;49.488;9.900;2023-04-24T07:41:57;18.30;49.50
39325;DHT22;25037;49.488;9.900;2023-04-24T07:44:26;18.10;50.10
39325;DHT22;25037;49.488;9.900;2023-04-24T07:46:52;17.90;50.20
39325;DHT22;25037;49.488;9.900;2023-04-24T07:49:19;18.00;50.40
39325;DHT22;25037;49.488;9.900;2023-04-24T07:51:46;18.00;50.20
39325;DHT22;25037;49.488;9.900;2023-04-24T07:54:13;17.90;50.30
39325;DHT22;25037;49.488;9.900;2023-04-24T07:56:40;17.70;50.30
39325;DHT22;25037;49.488;9.900;2023-04-24T07:59:09;17.50;50.80
39325;DHT22;25037;49.488;9.900;2023-04-24T08:01:36;17.30;51.40
39325;DHT22;25037;49.488;9.900;2023-04-24T08:04:04;17.20;51.50
39325;DHT22;25037;49.488;9.900;2023-04-24T08:06:31;17.20;51.50
39325;DHT22;25037;49.488;9.900;2023-04-24T08:08:59;17.30;51.30
39325;DHT22;25037;49.488;9.900;2023-04-24T08:11:26;17.30;51.40
39325;DHT22;25037;49.488;9.900;2023-04-24T08:13:53;17.30;51.40
39325;DHT22;25037;49.488;9.900;2023-04-24T08:16:21;17.30;51.50
39325;DHT22;25037;49.488;9.900;2023-04-24T08:18:47;17.30;51.50
39325;DHT22;25037;49.488;9.900;2023-04-24T08:21:14;17.30;51.70
39325;DHT22;25037;49.488;9.900;2023-04-24T08:23:43;17.30;51.70
39325;DHT22;25037;49.488;9.900;2023-04-24T08:26:10;17.30;51.80
39325;DHT22;25037;49.488;9.900;2023-04-24T08:28:38;17.80;50.90
39325;DHT22;25037;49.488;9.900;2023-04-24T08:31:05;18.20;50.60
39325;DHT22;25037;49.488;9.900;2023-04-24T08:33:32;18.30;50.80
39325;DHT22;25037;49.488;9.900;2023-04-24T08:36:05;18.60;50.30
39325;DHT22;25037;49.488;9.900;2023-04-24T08:38:33;18.70;49.60
39325;DHT22;25037;49.488;9.900;2023-04-24T08:41:01;18.70;49.30
39325;DHT22;25037;49.488;9.900;2023-04-24T08:43:28;19.00;48.50
39325;DHT22;25037;49.488;9.900;2023-04-24T08:45:56;19.40;47.70
39325;DHT22;25037;49.488;9.900;2023-04-24T08:48:23;19.60;46.90
39325;DHT22;25037;49.488;9.900;2023-04-24T08:50:58;19.80;46.40
39325;DHT22;25037;49.488;9.900;2023-04-24T08:53:26;19.70;46.20
39325;DHT22;25037;49.488;9.900;2023-04-24T08:55:54;19.50;46.10
39325;DHT22;25037;49.488;9.900;2023-04-24T08:58:22;19.00;46.50
39325;DHT22;25037;49.488;9.900;2023-04-24T09:00:51;18.40;48.10
39325;DHT22;25037;49.488;9.900;2023-04-24T09:03:18;17.80;48.90
39325;DHT22;25037;49.488;9.900;2023-04-24T09:05:48;17.00;50.00
39325;DHT22;25037;49.488;9.900;2023-04-24T09:08:19;16.60;51.30
39325;DHT22;25037;49.488;9.900;2023-04-24T09:10:46;16.20;52.20
39325;DHT22;25037;49.488;9.900;2023-04-24T09:13:17;15.90;52.60
39325;DHT22;25037;49.488;9.900;2023-04-24T09:15:44;15.70;52.70
39325;DHT22;25037;49.488;9.900;2023-04-24T09:18:11;15.70;53.10
39325;DHT22;25037;49.488;9.900;2023-04-24T09:21:03;15.60;53.50
39325;DHT22;25037;49.488;9.900;2023-04-24T09:23:31;15.80;54.40
39325;DHT22;25037;49.488;9.900;2023-04-24T09:25:59;15.90;54.50
39325;DHT22;25037;49.488;9.900;2023-04-24T09:28:31;16.20;54.70
39325;DHT22;25037;49.488;9.900;2023-04-24T09:31:06;16.40;55.10
39325;DHT22;25037;49.488;9.900;2023-04-24T09:33:33;16.70;55.20
39325;DHT22;25037;49.488;9.900;2023-04-24T09:36:01;16.90;55.30
39325;DHT22;25037;49.488;9.900;2023-04-24T09:38:36;17.10;54.20
39325;DHT22;25037;49.488;9.900;2023-04-24T09:41:06;17.50;54.50
39325;DHT22;25037;49.488;9.900;2023-04-24T09:43:33;17.80;53.40
39325;DHT22;25037;49.488;9.900;2023-04-24T09:46:06;17.90;52.80
39325;DHT22;25037;49.488;9.900;2023-04-24T09:48:37;18.20;52.90
39325;DHT22;25037;49.488;9.900;2023-04-24T09:51:05;18.40;52.10
39325;DHT22;25037;49.488;9.900;2023-04-24T09:53:33;18.60;52.10
39325;DHT22;25037;49.488;9.900;2023-04-24T09:56:07;18.80;50.60
39325;DHT22;25037;49.488;9.900;2023-04-24T09:58:35;19.10;49.50
39325;DHT22;25037;49.488;9.900;2023-04-24T10:01:03;19.10;48.90
39325;DHT22;25037;49.488;9.900;2023-04-24T10:03:30;19.10;48.20
39325;DHT22;25037;49.488;9.900;2023-04-24T10:06:01;19.10;47.70
39325;DHT22;25037;49.488;9.900;2023-04-24T10:08:35;19.00;47.00
39325;DHT22;25037;49.488;9.900;2023-04-24T10:11:03;19.00;47.00
39325;DHT22;25037;49.488;9.900;2023-04-24T10:13:30;18.90;47.40
39325;DHT22;25037;49.488;9.900;2023-04-24T10:15:59;18.70;47.00
39325;DHT22;25037;49.488;9.900;2023-04-24T10:18:27;18.50;47.10
39325;DHT22;25037;49.488;9.900;2023-04-24T10:20:54;18.40;46.80
39325;DHT22;25037;49.488;9.900;2023-04-24T10:23:22;18.10;47.20
39325;DHT22;25037;49.488;9.900;2023-04-24T10:25:50;17.90;48.00
39325;DHT22;25037;49.488;9.900;2023-04-24T10:28:19;17.90;47.70
39325;DHT22;25037;49.488;9.900;2023-04-24T10:30:46;18.00;47.30
39325;DHT22;25037;49.488;9.900;2023-04-24T10:33:13;18.10;47.30
39325;DHT22;25037;49.488;9.900;2023-04-24T10:35:45;18.10;47.10
39325;DHT22;25037;49.488;9.900;2023-04-24T10:38:18;18.20;47.40
39325;DHT22;25037;49.488;9.900;2023-04-24T10:40:48;18.40;47.40
39325;DHT22;25037;49.488;9.900;2023-04-24T10:43:17;18.70;46.90
39325;DHT22;25037;49.488;9.900;2023-04-24T10:46:01;18.80;46.70
39325;DHT22;25037;49.488;9.900;2023-04-24T10:48:30;18.80;46.40
39325;DHT22;25037;49.488;9.900;2023-04-24T10:50:57;18.80;46.20
39325;DHT22;25037;49.488;9.900;2023-04-24T10:53:27;18.80;46.10
39325;DHT22;25037;49.488;9.900;2023-04-24T10:56:05;18.70;45.90
39325;DHT22;25037;49.488;9.900;2023-04-24T10:58:44;18.50;45.90
39325;DHT22;25037;49.488;9.900;2023-04-24T11:01:25;18.40;45.80
39325;DHT22;25037;49.488;9.900;2023-04-24T11:03:58;18.30;45.90
39325;DHT22;25037;49.488;9.900;2023-04-24T11:06:36;18.30;45.60
39325;DHT22;25037;49.488;9.900;2023-04-24T11:11:35;18.00;46.00
39325;DHT22;25037;49.488;9.900;2023-04-24T11:14:05;17.80;46.20
39325;DHT22;25037;49.488;9.900;2023-04-24T11:16:35;17.70;46.60
39325;DHT22;25037;49.488;9.900;2023-04-24T11:19:06;17.50;47.10
39325;DHT22;25037;49.488;9.900;2023-04-24T11:21:45;17.40;47.40
39325;DHT22;25037;49.488;9.900;2023-04-24T11:24:49;17.30;47.80
39325;DHT22;25037;49.488;9.900;2023-04-24T11:27:17;17.40;48.10
39325;DHT22;25037;49.488;9.900;2023-04-24T11:37:36;18.00;47.20
39325;DHT22;25037;49.488;9.900;2023-04-24T11:40:05;18.10;47.00
39325;DHT22;25037;49.488;9.900;2023-04-24T11:42:37;18.00;47.00
39325;DHT22;25037;49.488;9.900;2023-04-24T11:45:12;17.80;47.10
39325;DHT22;25037;49.488;9.900;2023-04-24T11:47:39;17.70;47.30
39325;DHT22;25037;49.488;9.900;2023-04-24T11:50:09;17.60;47.10
39325;DHT22;25037;49.488;9.900;2023-04-24T11:52:41;17.60;47.20
39325;DHT22;25037;49.488;9.900;2023-04-24T11:57:52;17.50;47.30
39325;DHT22;25037;49.488;9.900;2023-04-24T12:00:25;17.40;47.40
39325;DHT22;25037;49.488;9.900;2023-04-24T12:03:06;17.60;46.80
39325;DHT22;25037;49.488;9.900;2023-04-24T12:05:34;17.70;46.60
39325;DHT22;25037;49.488;9.900;2023-04-24T12:08:03;17.70;46.40
39325;DHT22;25037;49.488;9.900;2023-04-24T12:10:31;17.60;46.40
39325;DHT22;25037;49.488;9.900;2023-04-24T12:12:59;17.60;46.20
39325;DHT22;25037;49.488;9.900;2023-04-24T12:15:27;17.50;46.90
39325;DHT22;25037;49.488;9.900;2023-04-24T12:17:55;17.50;47.10
39325;DHT22;25037;49.488;9.900;2023-04-24T12:20:26;17.60;46.90
39325;DHT22;25037;49.488;9.900;2023-04-24T12:22:56;17.70;46.60
39325;DHT22;25037;49.488;9.900;2023-04-24T12:25:25;17.90;46.00
39325;DHT22;25037;49.488;9.900;2023-04-24T12:27:54;18.10;45.80
39325;DHT22;25037;49.488;9.900;2023-04-24T12:30:26;18.30;45.40
39325;DHT22;25037;49.488;9.900;2023-04-24T12:32:57;18.60;45.20
39325;DHT22;25037;49.488;9.900;2023-04-24T12:35:27;19.00;44.70
39325;DHT22;25037;49.488;9.900;2023-04-24T12:37:54;19.20;44.20
39325;DHT22;25037;49.488;9.900;2023-04-24T12:40:22;19.20;43.90
39325;DHT22;25037;49.488;9.900;2023-04-24T12:42:51;19.20;44.00
39325;DHT22;25037;49.488;9.900;2023-04-24T12:45:18;19.20;44.30
39325;DHT22;25037;49.488;9.900;2023-04-24T12:47:46;19.20;44.00
39325;DHT22;25037;49.488;9.900;2023-04-24T12:50:14;19.10;44.00
39325;DHT22;25037;49.488;9.900;2023-04-24T12:52:42;19.10;44.10
39325;DHT22;25037;49.488;9.900;2023-04-24T12:55:10;19.00;44.20
39325;DHT22;25037;49.488;9.900;2023-04-24T12:57:39;18.80;44.50
39325;DHT22;25037;49.488;9.900;2023-04-24T13:00:07;18.80;44.90
39325;DHT22;25037;49.488;9.900;2023-04-24T13:02:34;18.70;44.80
39325;DHT22;25037;49.488;9.900;2023-04-24T13:05:01;18.60;45.10
39325;DHT22;25037;49.488;9.900;2023-04-24T13:07:28;18.60;45.10
39325;DHT22;25037;49.488;9.900;2023-04-24T13:09:56;18.70;44.30
39325;DHT22;25037;49.488;9.900;2023-04-24T13:12:23;18.70;44.50
39325;DHT22;25037;49.488;9.900;2023-04-24T13:14:53;18.90;44.20
39325;DHT22;25037;49.488;9.900;2023-04-24T13:17:20;19.10;44.20
39325;DHT22;25037;49.488;9.900;2023-04-24T13:19:49;19.20;44.20
39325;DHT22;25037;49.488;9.900;2023-04-24T13:22:16;19.10;44.20
39325;DHT22;25037;49.488;9.900;2023-04-24T13:24:45;19.10;44.60
39325;DHT22;25037;49.488;9.900;2023-04-24T13:27:11;18.90;44.70
39325;DHT22;25037;49.488;9.900;2023-04-24T13:29:38;18.80;45.10
39325;DHT22;25037;49.488;9.900;2023-04-24T13:32:05;18.70;45.40
39325;DHT22;25037;49.488;9.900;2023-04-24T13:34:32;18.60;45.70
39325;DHT22;25037;49.488;9.900;2023-04-24T13:36:59;18.60;45.80
39325;DHT22;25037;49.488;9.900;2023-04-24T13:39:26;18.70;45.90
39325;DHT22;25037;49.488;9.900;2023-04-24T13:41:53;18.60;45.90
39325;DHT22;25037;49.488;9.900;2023-04-24T13:44:21;18.50;45.70
39325;DHT22;25037;49.488;9.900;2023-04-24T13:46:50;18.50;45.80
39325;DHT22;25037;49.488;9.900;2023-04-24T13:49:18;18.40;45.80
39325;DHT22;25037;49.488;9.900;2023-04-24T13:51:45;18.40;45.50
39325;DHT22;25037;49.488;9.900;2023-04-24T13:54:12;18.30;45.50
39325;DHT22;25037;49.488;9.900;2023-04-24T13:56:40;18.30;45.50
39325;DHT22;25037;49.488;9.900;2023-04-24T13:59:07;18.40;45.30
39325;DHT22;25037;49.488;9.900;2023-04-24T14:01:34;18.50;44.90
39325;DHT22;25037;49.488;9.900;2023-04-24T14:04:01;18.60;44.20
39325;DHT22;25037;49.488;9.900;2023-04-24T14:06:27;18.70;44.10
39325;DHT22;25037;49.488;9.900;2023-04-24T14:08:54;18.80;44.00
39325;DHT22;25037;49.488;9.900;2023-04-24T14:11:21;18.80;43.80
39325;DHT22;25037;49.488;9.900;2023-04-24T14:13:48;18.80;43.40
39325;DHT22;25037;49.488;9.900;2023-04-24T14:16:15;18.80;43.40
39325;DHT22;25037;49.488;9.900;2023-04-24T14:18:42;18.70;43.20
39325;DHT22;25037;49.488;9.900;2023-04-24T14:21:09;18.50;43.40
39325;DHT22;25037;49.488;9.900;2023-04-24T14:23:35;18.40;43.60
39325;DHT22;25037;49.488;9.900;2023-04-24T14:26:02;18.20;43.90
39325;DHT22;25037;49.488;9.900;2023-04-24T14:28:29;18.20;44.00
39325;DHT22;25037;49.488;9.900;2023-04-24T14:30:55;18.20;43.60
39325;DHT22;25037;49.488;9.900;2023-04-24T14:33:22;18.20;43.70
39325;DHT22;25037;49.488;9.900;2023-04-24T14:35:49;18.10;43.80
39325;DHT22;25037;49.488;9.900;2023-04-24T14:38:16;18.20;43.90
39325;DHT22;25037;49.488;9.900;2023-04-24T14:40:42;18.20;43.80
39325;DHT22;25037;49.488;9.900;2023-04-24T14:43:12;18.20;43.60
39325;DHT22;25037;49.488;9.900;2023-04-24T14:45:38;18.10;43.20
39325;DHT22;25037;49.488;9.900;2023-04-24T14:48:08;18.00;43.30
39325;DHT22;25037;49.488;9.900;2023-04-24T14:50:35;18.00;43.10
39325;DHT22;25037;49.488;9.900;2023-04-24T14:53:02;18.00;43.30
39325;DHT22;25037;49.488;9.900;2023-04-24T14:55:29;18.10;43.20
39325;DHT22;25037;49.488;9.900;2023-04-24T14:57:56;18.20;43.20
39325;DHT22;25037;49.488;9.900;2023-04-24T15:00:22;18.20;43.30
39325;DHT22;25037;49.488;9.900;2023-04-24T15:02:52;18.10;43.20
39325;DHT22;25037;49.488;9.900;2023-04-24T15:05:19;18.00;43.20
39325;DHT22;25037;49.488;9.900;2023-04-24T15:07:46;18.00;43.30
39325;DHT22;25037;49.488;9.900;2023-04-24T15:10:13;18.00;43.40
39325;DHT22;25037;49.488;9.900;2023-04-24T15:12:39;18.00;43.60
39325;DHT22;25037;49.488;9.900;2023-04-24T15:15:07;17.90;43.30
39325;DHT22;25037;49.488;9.900;2023-04-24T15:17:34;17.90;43.30
39325;DHT22;25037;49.488;9.900;2023-04-24T15:20:01;17.90;43.20
39325;DHT22;25037;49.488;9.900;2023-04-24T15:22:29;17.90;43.20
39325;DHT22;25037;49.488;9.900;2023-04-24T15:24:55;17.80;43.10
39325;DHT22;25037;49.488;9.900;2023-04-24T15:27:22;17.80;43.20
39325;DHT22;25037;49.488;9.900;2023-04-24T15:29:49;17.70;42.90
39325;DHT22;25037;49.488;9.900;2023-04-24T15:32:16;17.60;43.30
39325;DHT22;25037;49.488;9.900;2023-04-24T15:34:42;17.60;43.40
39325;DHT22;25037;49.488;9.900;2023-04-24T15:37:11;17.60;43.50
39325;DHT22;25037;49.488;9.900;2023-04-24T15:39:38;17.60;43.60
39325;DHT22;25037;49.488;9.900;2023-04-24T15:42:04;17.50;43.60
39325;DHT22;25037;49.488;9.900;2023-04-24T15:44:31;17.50;43.60
39325;DHT22;25037;49.488;9.900;2023-04-24T15:47:00;17.40;43.80